Impasse — WDH4173 — position and weather

sailwx.info

Track history (hours):
 
Tides and Currents Weather Stations Pressure Air Temp Water Temp Dewpoint Dewpoint Depression Visibility Wind Speed Wind Dir Waves Ship Positions

Impasse

Owner: Clarke, et al, David C, Newport Beach, CA. More information available from US FCC via Universal Licensing System and Coast Guard Vessel Documentation Center.

Last reported at 2017-Oct-08 22:49 UTC. Time now 2017-Oct-17 22:52 UTC.
Position N 33°36' W 117°54'.
Warning: this ship's position is 9 days out of date.

Length 15 m.

Type: Sailing vessel. MMSI: 367614920.

Date/timePositionNaut miles runAvg speedWind from/ knotsBaromVisibWave heightAir tempDewpointWater temp
2017-Oct-08 22:49N 33°36' W 117°54'2 4.7
2017-Oct-08 22:24N 33°35' W 117°53'  
2017-Sep-29 21:53N 33°23' W 118°22'0 0.0
2017-Sep-29 21:29N 33°23' W 118°22'0 0.0
2017-Sep-29 20:59N 33°23' W 118°22'0 0.0
2017-Sep-29 20:29N 33°23' W 118°22'2 5.0
2017-Sep-29 20:00N 33°24' W 118°19'4 8.0
2017-Sep-29 19:30N 33°26' W 118°15'4 8.0
2017-Sep-29 18:59N 33°28' W 118°10'4 7.7
2017-Sep-29 18:30N 33°29' W 118°06'4 7.5
2017-Sep-29 18:00N 33°31' W 118°02'4 7.4
2017-Sep-29 17:30N 33°33' W 117°58'4 7.5
2017-Sep-29 16:59N 33°34' W 117°54'  
Track history (hours):
 
Tides and Currents Weather Stations Pressure Air Temp Water Temp Dewpoint Dewpoint Depression Visibility Wind Speed Wind Dir Waves Ship Positions

Impasse

Owner: Clarke, et al, David C, Newport Beach, CA. More information available from US FCC via Universal Licensing System and Coast Guard Vessel Documentation Center.

Last reported at 2017-Oct-08 22:49 UTC. Time now 2017-Oct-17 22:52 UTC.
Position N 33°36' W 117°54'.
Warning: this ship's position is 9 days out of date.

Length 15 m.

Type: Sailing vessel. MMSI: 367614920.

Date/timePositionNaut miles runAvg speedWind from/ knotsBaromVisibWave heightAir tempDewpointWater temp
2017-Oct-08 22:49N 33°36' W 117°54'2 4.7
2017-Oct-08 22:24N 33°35' W 117°53'  
2017-Sep-29 21:53N 33°23' W 118°22'0 0.0
2017-Sep-29 21:29N 33°23' W 118°22'0 0.0
2017-Sep-29 20:59N 33°23' W 118°22'0 0.0
2017-Sep-29 20:29N 33°23' W 118°22'2 5.0
2017-Sep-29 20:00N 33°24' W 118°19'4 8.0
2017-Sep-29 19:30N 33°26' W 118°15'4 8.0
2017-Sep-29 18:59N 33°28' W 118°10'4 7.7
2017-Sep-29 18:30N 33°29' W 118°06'4 7.5
2017-Sep-29 18:00N 33°31' W 118°02'4 7.4
2017-Sep-29 17:30N 33°33' W 117°58'4 7.5
2017-Sep-29 16:59N 33°34' W 117°54'  

Dump ship's entire track history